Portuguese Bend, California
Current Conditions -  °F | °C
As of 2:53 PM on Saturday 25 Oct 2014 (Local Time) from KHHR Reporting Station
Clear Clear  
Wind Chill: 75°   Ceiling: Unl
Heat Index: 75°   Visibility: 10mi
Dew Point: 57°   Wind: 10mph
Humidity: 53%   Direction: 290°WNW
Pressure: 30.02"   Gusts: NA
Location:  33.7772°N, 118.368°W
Report Text: KHHR 252153Z 29009KT 10SM CLR 24/14 A3002 RMK AO2 SLP165 T02390139
Loading
Personal Weather Stations






























Interactive Weather Map
Tropical Storm Tracking
New forecast layout! Learn more

10-Day Weather Forecast

Advertisements
Track Severe Weather on mobile